createdAt,value
2018-09-18T00:01:22.120Z,98098.52
2018-09-18T00:03:51.089Z,98094.91
2018-09-18T00:06:20.039Z,98101.68
2018-09-18T00:08:48.935Z,98097.37
2018-09-18T00:11:19.630Z,98085.92
2018-09-18T00:13:48.379Z,98090.80
2018-09-18T00:16:17.607Z,98093.59
2018-09-18T00:18:46.686Z,98087.46
2018-09-18T00:21:15.758Z,98088.92
2018-09-18T00:23:44.667Z,98095.16
2018-09-18T00:26:13.662Z,98092.67
2018-09-18T00:28:42.649Z,98091.64
2018-09-18T00:31:11.661Z,98087.08
2018-09-18T00:33:40.589Z,98086.51
2018-09-18T00:36:09.530Z,98080.50
2018-09-18T00:38:38.475Z,98077.78
2018-09-18T00:41:07.474Z,98074.60
2018-09-18T00:43:36.354Z,98071.19
2018-09-18T00:46:05.346Z,98075.91
2018-09-18T00:48:34.251Z,98071.14
2018-09-18T00:51:03.158Z,98067.73
2018-09-18T00:53:32.219Z,98070.18
2018-09-18T00:56:01.090Z,98072.31
2018-09-18T00:58:30.101Z,98063.59
2018-09-18T01:00:59.006Z,98067.20
2018-09-18T01:03:27.966Z,98066.08
2018-09-18T01:05:56.983Z,98065.35
2018-09-18T01:08:26.823Z,98061.94
2018-09-18T01:10:56.653Z,98059.95
2018-09-18T01:13:25.422Z,98055.65
2018-09-18T01:15:54.277Z,98058.23
2018-09-18T01:18:23.154Z,98056.61
2018-09-18T01:20:52.058Z,98066.79
2018-09-18T01:23:21.192Z,98065.66
2018-09-18T01:25:50.240Z,98062.65
2018-09-18T01:28:19.190Z,98072.80
2018-09-18T01:30:47.993Z,98069.22
2018-09-18T01:33:16.922Z,98072.00
2018-09-18T01:35:45.985Z,98073.69
2018-09-18T01:38:14.754Z,98075.44
2018-09-18T01:40:43.586Z,98076.23
2018-09-18T01:43:12.564Z,98073.69
2018-09-18T01:45:41.379Z,98071.63
2018-09-18T01:48:10.309Z,98074.20
2018-09-18T01:50:39.156Z,98076.13
2018-09-18T01:53:08.150Z,98077.66
2018-09-18T01:55:37.104Z,98073.41
2018-09-18T01:58:06.076Z,98078.61
2018-09-18T02:00:35.176Z,98076.55
2018-09-18T02:03:04.379Z,98073.99
2018-09-18T02:05:33.417Z,98077.59
2018-09-18T02:08:02.650Z,98072.17
2018-09-18T02:10:31.624Z,98076.70
2018-09-18T02:13:00.742Z,98074.88
2018-09-18T02:15:29.644Z,98077.59
2018-09-18T02:17:58.576Z,98076.47
2018-09-18T02:20:27.535Z,98083.36
2018-09-18T02:22:56.294Z,98082.06
2018-09-18T02:25:25.310Z,98080.70
2018-09-18T02:27:54.367Z,98072.75
2018-09-18T02:30:23.215Z,98070.66
2018-09-18T02:32:52.115Z,98069.06
2018-09-18T02:35:21.062Z,98072.09
2018-09-18T02:37:50.174Z,98075.77
2018-09-18T02:40:19.144Z,98079.75
2018-09-18T02:42:48.208Z,98079.98
2018-09-18T02:45:17.129Z,98086.95
2018-09-18T02:47:46.038Z,98084.72
2018-09-18T02:50:14.871Z,98082.72
2018-09-18T02:52:43.643Z,98083.61
2018-09-18T02:55:12.532Z,98083.38
2018-09-18T02:57:41.403Z,98081.13
2018-09-18T03:00:10.387Z,98080.33
2018-09-18T03:02:40.418Z,98077.45
2018-09-18T03:05:09.469Z,98079.92
2018-09-18T03:07:38.483Z,98081.14
2018-09-18T03:10:07.928Z,98076.83
2018-09-18T03:12:36.835Z,98083.69
2018-09-18T03:15:06.014Z,98079.61
2018-09-18T03:17:35.228Z,98083.87
2018-09-18T03:20:04.107Z,98077.94
2018-09-18T03:22:33.130Z,98081.16
2018-09-18T03:25:02.152Z,98087.44
2018-09-18T03:27:31.735Z,98087.21
2018-09-18T03:30:00.707Z,98079.16
2018-09-18T03:32:29.727Z,98081.88
2018-09-18T03:34:58.679Z,98071.49
2018-09-18T03:37:27.655Z,98078.19
2018-09-18T03:39:56.650Z,98082.34
2018-09-18T03:42:25.622Z,98077.54
2018-09-18T03:44:54.458Z,98076.18
2018-09-18T03:47:23.534Z,98078.42
2018-09-18T03:49:53.342Z,98072.05
2018-09-18T03:52:22.376Z,98072.34
2018-09-18T03:54:51.475Z,98070.28
2018-09-18T03:57:20.363Z,98067.66
2018-09-18T03:59:49.380Z,98070.10
2018-09-18T04:02:18.339Z,98076.64
2018-09-18T04:04:47.266Z,98070.66
2018-09-18T04:07:16.237Z,98065.17
2018-09-18T04:09:45.243Z,98063.59
2018-09-18T04:12:14.199Z,98073.55
2018-09-18T04:14:43.106Z,98069.39
2018-09-18T04:17:13.242Z,98074.26
2018-09-18T04:19:42.090Z,98073.70
2018-09-18T04:22:10.971Z,98074.17
2018-09-18T04:24:40.026Z,98075.38
2018-09-18T04:27:08.965Z,98081.59
2018-09-18T04:29:37.967Z,98078.33
2018-09-18T04:32:06.841Z,98079.13
2018-09-18T04:34:35.603Z,98082.69
2018-09-18T04:37:04.464Z,98079.50
2018-09-18T04:39:33.485Z,98079.08
2018-09-18T04:42:02.530Z,98078.05
2018-09-18T04:44:31.698Z,98078.52
2018-09-18T04:47:00.798Z,98082.21
2018-09-18T04:49:29.895Z,98084.69
2018-09-18T04:51:58.746Z,98082.21
2018-09-18T04:54:34.075Z,98079.50
2018-09-18T04:57:03.079Z,98081.09
2018-09-18T04:59:32.035Z,98072.48
2018-09-18T05:02:00.877Z,98077.58
2018-09-18T05:04:29.934Z,98078.05
2018-09-18T05:06:58.780Z,98083.80
2018-09-18T05:09:27.971Z,98088.66
2018-09-18T05:11:56.884Z,98088.25
2018-09-18T05:14:26.097Z,98087.87
2018-09-18T05:16:55.477Z,98093.72
2018-09-18T05:19:24.385Z,98095.02
2018-09-18T05:21:53.286Z,98096.14
2018-09-18T05:24:22.219Z,98091.66
2018-09-18T05:26:51.079Z,98096.61
2018-09-18T05:29:20.033Z,98101.80
2018-09-18T05:31:49.142Z,98100.36
2018-09-18T05:34:18.051Z,98097.73
2018-09-18T05:36:47.145Z,98106.03
2018-09-18T05:39:16.075Z,98097.27
2018-09-18T05:41:45.092Z,98096.00
2018-09-18T05:44:14.342Z,98096.30
2018-09-18T05:46:43.285Z,98098.48
2018-09-18T05:49:12.269Z,98103.16
2018-09-18T05:51:41.236Z,98096.13
2018-09-18T05:54:10.353Z,98100.05
2018-09-18T05:56:39.679Z,98101.02
2018-09-18T05:59:08.599Z,98095.17
2018-09-18T06:01:37.506Z,98101.16
2018-09-18T06:04:06.459Z,98100.77
2018-09-18T06:06:35.361Z,98104.64
2018-09-18T06:09:05.371Z,98101.84
2018-09-18T06:11:34.276Z,98100.86
2018-09-18T06:14:03.186Z,98102.13
2018-09-18T06:16:32.152Z,98101.53
2018-09-18T06:19:01.145Z,98107.98
2018-09-18T06:21:30.028Z,98100.58
2018-09-18T06:23:59.267Z,98107.67
2018-09-18T06:26:28.470Z,98109.32
2018-09-18T06:28:57.870Z,98102.55
2018-09-18T06:31:26.806Z,98097.73
2018-09-18T06:33:55.767Z,98099.75
2018-09-18T06:36:24.856Z,98106.84
2018-09-18T06:38:53.904Z,98105.31
2018-09-18T06:41:22.874Z,98102.45
2018-09-18T06:43:52.072Z,98104.13
2018-09-18T06:46:21.036Z,98108.74
2018-09-18T06:48:49.982Z,98106.97
2018-09-18T06:51:19.051Z,98118.73
2018-09-18T06:53:47.896Z,98115.27
2018-09-18T06:56:16.901Z,98113.48
2018-09-18T06:58:45.974Z,98117.14
2018-09-18T07:01:14.886Z,98119.45
2018-09-18T07:03:43.978Z,98119.47
2018-09-18T07:06:12.869Z,98118.05
2018-09-18T07:08:42.028Z,98113.86
2018-09-18T07:11:10.928Z,98118.09
2018-09-18T07:13:40.102Z,98113.86
2018-09-18T07:16:09.271Z,98112.07
2018-09-18T07:18:38.109Z,98114.33
2018-09-18T07:21:07.659Z,98113.30
2018-09-18T07:23:36.572Z,98117.70
2018-09-18T07:26:05.462Z,98114.48
2018-09-18T07:28:34.276Z,98112.38
2018-09-18T07:31:03.143Z,98107.23
2018-09-18T07:33:32.150Z,98101.23
2018-09-18T07:36:01.334Z,98103.09
2018-09-18T07:38:30.199Z,98101.24
2018-09-18T07:40:59.185Z,98101.94
2018-09-18T07:43:28.468Z,98102.84
2018-09-18T07:45:57.446Z,98107.02
2018-09-18T07:48:30.436Z,98101.81
2018-09-18T07:50:59.416Z,98103.64
2018-09-18T07:53:28.263Z,98104.94
2018-09-18T07:55:57.069Z,98100.37
2018-09-18T07:58:26.082Z,98099.37
2018-09-18T08:00:55.579Z,98102.53
2018-09-18T08:03:24.557Z,98103.63
2018-09-18T08:05:53.751Z,98100.11
2018-09-18T08:08:22.800Z,98099.84
2018-09-18T08:10:51.991Z,98096.34
2018-09-18T08:13:21.083Z,98096.19
2018-09-18T08:15:50.056Z,98098.86
2018-09-18T08:18:18.932Z,98097.30
2018-09-18T08:20:48.135Z,98095.97
2018-09-18T08:23:16.957Z,98098.09
2018-09-18T08:25:46.027Z,98093.88
2018-09-18T08:28:14.971Z,98092.14
2018-09-18T08:30:43.843Z,98091.30
2018-09-18T08:33:12.820Z,98090.45
2018-09-18T08:35:41.770Z,98093.04
2018-09-18T08:38:10.783Z,98085.80
2018-09-18T08:40:39.619Z,98090.70
2018-09-18T08:43:08.719Z,98080.05
2018-09-18T08:45:37.706Z,98078.77
2018-09-18T08:48:06.586Z,98081.03
2018-09-18T08:50:35.541Z,98081.30
2018-09-18T08:53:04.513Z,98081.00
2018-09-18T08:55:33.632Z,98083.08
2018-09-18T08:58:02.597Z,98080.61
2018-09-18T09:00:31.560Z,98080.56
2018-09-18T09:03:00.323Z,98074.27
2018-09-18T09:05:29.129Z,98072.86
2018-09-18T09:07:58.193Z,98073.28
2018-09-18T09:10:27.177Z,98077.33
2018-09-18T09:12:56.482Z,98080.94
2018-09-18T09:15:25.462Z,98082.91
2018-09-18T09:17:54.550Z,98080.82
2018-09-18T09:20:23.526Z,98083.00
2018-09-18T09:22:52.575Z,98079.31
2018-09-18T09:25:21.368Z,98077.41
2018-09-18T09:27:50.186Z,98073.33
2018-09-18T09:30:19.284Z,98073.68
2018-09-18T09:32:48.231Z,98069.53
2018-09-18T09:35:17.197Z,98067.80
2018-09-18T09:37:46.207Z,98063.73
2018-09-18T09:40:15.111Z,98065.34
2018-09-18T09:42:44.074Z,98070.51
2018-09-18T09:45:12.805Z,98070.51
2018-09-18T09:47:41.792Z,98061.48
2018-09-18T09:50:10.717Z,98062.31
2018-09-18T09:52:39.562Z,98057.85
2018-09-18T09:55:08.419Z,98058.05
2018-09-18T09:57:37.536Z,98051.74
2018-09-18T10:00:07.663Z,98050.76
2018-09-18T10:02:41.783Z,98043.89
2018-09-18T10:05:10.854Z,98046.91
2018-09-18T10:07:39.920Z,98043.58
2018-09-18T10:10:09.223Z,98048.88
2018-09-18T10:12:39.212Z,98045.56
2018-09-18T10:15:08.995Z,98044.80
2018-09-18T10:17:38.145Z,98045.59
2018-09-18T10:20:07.839Z,98037.53
2018-09-18T10:22:37.108Z,98046.80
2018-09-18T10:25:06.576Z,98041.66
2018-09-18T10:27:35.705Z,98032.77
2018-09-18T10:30:05.148Z,98039.49
2018-09-18T10:32:34.035Z,98034.57
2018-09-18T10:35:03.167Z,98035.36
2018-09-18T10:37:32.571Z,98033.16
2018-09-18T10:40:01.417Z,98029.44
2018-09-18T10:42:30.504Z,98028.41
2018-09-18T10:44:59.755Z,98023.92
2018-09-18T10:47:28.643Z,98019.56
2018-09-18T10:49:57.544Z,98010.34
2018-09-18T10:52:26.649Z,98022.75
2018-09-18T10:54:55.637Z,98019.79
2018-09-18T10:57:24.389Z,98011.34
2018-09-18T10:59:53.274Z,98008.57
2018-09-18T11:02:22.224Z,98009.96
2018-09-18T11:04:51.479Z,98002.47
2018-09-18T11:07:20.534Z,98001.47
2018-09-18T11:09:49.297Z,98001.06
2018-09-18T11:12:18.458Z,98002.63
2018-09-18T11:14:47.387Z,97996.71
2018-09-18T11:17:16.384Z,97992.73
2018-09-18T11:19:45.338Z,97985.62
2018-09-18T11:22:14.275Z,97989.73
2018-09-18T11:24:43.244Z,97985.18
2018-09-18T11:27:12.174Z,97977.84
2018-09-18T11:29:41.198Z,97977.74
2018-09-18T11:32:10.280Z,97977.85
2018-09-18T11:34:39.210Z,97978.64
2018-09-18T11:37:08.186Z,97975.80
2018-09-18T11:39:36.991Z,97977.16
2018-09-18T11:42:06.063Z,97978.73
2018-09-18T11:44:35.112Z,97978.14
2018-09-18T11:47:03.957Z,97976.63
2018-09-18T11:49:32.876Z,97974.45
2018-09-18T11:52:01.727Z,97973.52
2018-09-18T11:54:31.143Z,97965.59
2018-09-18T11:57:00.263Z,97976.21
2018-09-18T11:59:29.094Z,97975.09
2018-09-18T12:01:58.099Z,97972.24
2018-09-18T12:04:26.985Z,97960.42
2018-09-18T12:06:55.803Z,97958.52
2018-09-18T12:09:24.899Z,97948.97
2018-09-18T12:12:00.375Z,97935.75
2018-09-18T12:14:29.464Z,97945.07
2018-09-18T12:16:58.409Z,97940.63
2018-09-18T12:19:27.297Z,97941.88
2018-09-18T12:21:56.427Z,97936.98
2018-09-18T12:24:25.247Z,97934.16
2018-09-18T12:26:54.247Z,97933.22
2018-09-18T12:29:23.308Z,97934.62
2018-09-18T12:31:52.166Z,97926.73
2018-09-18T12:34:21.265Z,97928.56
2018-09-18T12:36:50.300Z,97923.06
2018-09-18T12:39:19.474Z,97920.22
2018-09-18T12:41:48.616Z,97922.64
2018-09-18T12:44:17.509Z,97912.90
2018-09-18T12:46:46.292Z,97903.84
2018-09-18T12:49:15.085Z,97898.80
2018-09-18T12:51:43.884Z,97906.89
2018-09-18T12:54:12.902Z,97905.32
2018-09-18T12:56:42.120Z,97899.77
2018-09-18T12:59:11.304Z,97904.06
2018-09-18T13:01:40.133Z,97903.46
2018-09-18T13:04:09.098Z,97898.06
2018-09-18T13:06:38.090Z,97891.80
2018-09-18T13:09:09.458Z,97891.11
2018-09-18T13:11:38.469Z,97882.41
2018-09-18T13:14:08.325Z,97886.48
2018-09-18T13:16:37.349Z,97884.02
2018-09-18T13:19:06.791Z,97881.71
2018-09-18T13:21:35.983Z,97882.91
2018-09-18T13:24:05.187Z,97878.72
2018-09-18T13:26:34.250Z,97870.19
2018-09-18T13:29:03.235Z,97864.25
2018-09-18T13:31:32.090Z,97858.05
2018-09-18T13:34:01.175Z,97852.53
2018-09-18T13:36:30.264Z,97854.72
2018-09-18T13:38:59.109Z,97855.03
2018-09-18T13:41:28.123Z,97851.97
2018-09-18T13:43:57.365Z,97849.19
2018-09-18T13:46:26.226Z,97851.73
2018-09-18T13:48:55.066Z,97850.87
2018-09-18T13:51:24.154Z,97857.34
2018-09-18T13:53:53.014Z,97850.05
2018-09-18T13:56:21.930Z,97854.33
2018-09-18T13:58:51.084Z,97843.78
2018-09-18T14:01:20.192Z,97842.52
2018-09-18T14:03:49.055Z,97840.42
2018-09-18T14:06:18.499Z,97841.41
2018-09-18T14:08:47.323Z,97839.86
2018-09-18T14:11:16.589Z,97838.43
2018-09-18T14:13:45.835Z,97838.73
2018-09-18T14:16:14.731Z,97835.59
2018-09-18T14:18:43.626Z,97833.11
2018-09-18T14:21:12.655Z,97837.77
2018-09-18T14:23:41.547Z,97837.78
2018-09-18T14:26:10.521Z,97828.64
2018-09-18T14:28:39.492Z,97832.88
2018-09-18T14:31:08.381Z,97832.53
2018-09-18T14:33:37.299Z,97830.47
2018-09-18T14:36:06.697Z,97829.31
2018-09-18T14:38:35.638Z,97832.25
2018-09-18T14:41:04.532Z,97826.56
2018-09-18T14:43:33.559Z,97828.55
2018-09-18T14:46:02.582Z,97832.89
2018-09-18T14:48:31.524Z,97826.47
2018-09-18T14:51:00.354Z,97827.03
2018-09-18T14:53:29.227Z,97827.63
2018-09-18T14:55:58.059Z,97825.34
2018-09-18T14:58:27.002Z,97820.22
2018-09-18T15:00:56.055Z,97822.04
2018-09-18T15:03:24.998Z,97820.73
2018-09-18T15:05:54.068Z,97823.13
2018-09-18T15:08:22.943Z,97825.28
2018-09-18T15:10:51.808Z,97824.44
2018-09-18T15:13:20.595Z,97823.63
2018-09-18T15:15:49.689Z,97815.92
2018-09-18T15:18:18.584Z,97816.08
2018-09-18T15:20:47.775Z,97812.13
2018-09-18T15:23:16.534Z,97813.27
2018-09-18T15:25:45.363Z,97811.56
2018-09-18T15:28:14.405Z,97811.59
2018-09-18T15:30:43.259Z,97820.16
2018-09-18T15:33:12.548Z,97818.11
2018-09-18T15:35:41.561Z,97819.53
2018-09-18T15:38:10.433Z,97818.12
2018-09-18T15:40:39.578Z,97809.11
2018-09-18T15:43:08.738Z,97815.28
2018-09-18T15:45:38.272Z,97810.59
2018-09-18T15:48:07.224Z,97812.77
2018-09-18T15:50:36.123Z,97806.69
2018-09-18T15:53:05.274Z,97809.53
2018-09-18T15:55:34.041Z,97802.78
2018-09-18T15:58:03.177Z,97806.77
2018-09-18T16:00:32.117Z,97802.06
2018-09-18T16:03:01.285Z,97798.19
2018-09-18T16:05:30.189Z,97801.66
2018-09-18T16:07:59.099Z,97799.78
2018-09-18T16:10:28.285Z,97799.03
2018-09-18T16:12:57.403Z,97799.27
2018-09-18T16:15:26.395Z,97804.06
2018-09-18T16:17:55.320Z,97802.20
2018-09-18T16:20:24.435Z,97802.54
2018-09-18T16:22:53.181Z,97799.61
2018-09-18T16:25:22.170Z,97805.31
2018-09-18T16:27:51.535Z,97804.86
2018-09-18T16:30:20.547Z,97814.57
2018-09-18T16:32:49.651Z,97812.05
2018-09-18T16:35:18.710Z,97808.51
2018-09-18T16:37:47.921Z,97814.14
2018-09-18T16:40:17.023Z,97808.28
2018-09-18T16:42:46.088Z,97809.38
2018-09-18T16:45:14.855Z,97810.15
2018-09-18T16:47:43.995Z,97805.36
2018-09-18T16:50:12.961Z,97800.73
2018-09-18T16:52:41.998Z,97803.56
2018-09-18T16:55:11.344Z,97809.62
2018-09-18T16:57:40.264Z,97806.72
2018-09-18T17:00:09.391Z,97814.31
2018-09-18T17:02:38.831Z,97816.19
2018-09-18T17:05:08.294Z,97811.83
2018-09-18T17:07:37.225Z,97819.38
2018-09-18T17:10:06.204Z,97821.73
2018-09-18T17:12:35.290Z,97820.82
2018-09-18T17:15:04.678Z,97832.72
2018-09-18T17:17:33.887Z,97837.64
2018-09-18T17:20:02.818Z,97839.84
2018-09-18T17:22:31.675Z,97837.34
2018-09-18T17:25:00.496Z,97846.41
2018-09-18T17:27:29.442Z,97848.57
2018-09-18T17:29:58.300Z,97849.17
2018-09-18T17:32:27.182Z,97857.03
2018-09-18T17:34:56.152Z,97851.66
2018-09-18T17:37:25.154Z,97856.20
2018-09-18T17:39:54.558Z,97860.16
2018-09-18T17:42:23.621Z,97864.88
2018-09-18T17:44:52.587Z,97869.02
2018-09-18T17:47:21.629Z,97865.82
2018-09-18T17:49:50.531Z,97867.61
2018-09-18T17:52:19.475Z,97873.22
2018-09-18T17:54:48.472Z,97869.88
2018-09-18T17:57:17.359Z,97868.92
2018-09-18T17:59:46.390Z,97868.54
2018-09-18T18:02:15.412Z,97884.33
2018-09-18T18:04:44.456Z,97887.47
2018-09-18T18:07:13.454Z,97884.31
2018-09-18T18:09:42.399Z,97894.91
2018-09-18T18:12:11.232Z,97895.86
2018-09-18T18:14:40.254Z,97894.49
2018-09-18T18:17:09.226Z,97900.77
2018-09-18T18:19:38.302Z,97901.38
2018-09-18T18:22:07.750Z,97900.03
2018-09-18T18:24:36.700Z,97903.94
2018-09-18T18:27:05.697Z,97908.27
2018-09-18T18:29:34.743Z,97911.82
2018-09-18T18:32:03.518Z,97915.37
2018-09-18T18:34:32.487Z,97921.25
2018-09-18T18:37:01.564Z,97914.75
2018-09-18T18:39:30.543Z,97924.80
2018-09-18T18:41:59.479Z,97927.92
2018-09-18T18:44:28.294Z,97923.96
2018-09-18T18:46:57.027Z,97927.08
2018-09-18T18:49:26.175Z,97937.69
2018-09-18T18:51:55.162Z,97941.19
2018-09-18T18:54:24.229Z,97940.56
2018-09-18T18:56:53.163Z,97941.95
2018-09-18T18:59:22.064Z,97951.13
2018-09-18T19:01:50.882Z,97955.66
2018-09-18T19:04:19.939Z,97952.70
2018-09-18T19:06:48.812Z,97954.27
2018-09-18T19:09:17.759Z,97962.30
2018-09-18T19:11:46.767Z,97961.06
2018-09-18T19:14:15.590Z,97964.80
2018-09-18T19:16:44.669Z,97965.15
2018-09-18T19:19:13.858Z,97971.39
2018-09-18T19:21:42.784Z,97971.93
2018-09-18T19:24:12.048Z,97970.09
2018-09-18T19:26:40.968Z,97975.16
2018-09-18T19:29:09.936Z,97973.33
2018-09-18T19:31:38.890Z,97977.17
2018-09-18T19:34:07.959Z,97979.66
2018-09-18T19:36:36.937Z,97977.42
2018-09-18T19:39:08.838Z,97976.44
2018-09-18T19:41:37.971Z,97978.58
2018-09-18T19:44:07.909Z,97978.33
2018-09-18T19:46:37.064Z,97980.22
2018-09-18T19:49:05.922Z,97983.94
2018-09-18T19:51:34.693Z,97989.23
2018-09-18T19:54:03.548Z,97985.72
2018-09-18T19:56:32.839Z,97997.23
2018-09-18T19:59:01.890Z,97992.31
2018-09-18T20:01:30.925Z,98001.10
2018-09-18T20:03:59.828Z,98000.23
2018-09-18T20:06:28.735Z,97997.64
2018-09-18T20:08:57.789Z,97998.95
2018-09-18T20:11:26.612Z,98000.02
2018-09-18T20:13:55.767Z,98001.50
2018-09-18T20:16:24.836Z,98004.02
2018-09-18T20:18:53.696Z,98011.59
2018-09-18T20:21:22.712Z,98013.08
2018-09-18T20:23:51.405Z,98017.86
2018-09-18T20:26:20.360Z,98015.42
2018-09-18T20:28:49.358Z,98020.98
2018-09-18T20:31:18.298Z,98013.13
2018-09-18T20:33:47.183Z,98013.44
2018-09-18T20:36:16.417Z,98015.88
2018-09-18T20:38:45.255Z,98015.55
2018-09-18T20:41:14.058Z,98018.09
2018-09-18T20:43:43.228Z,98018.58
2018-09-18T20:46:12.249Z,98021.87
2018-09-18T20:48:41.122Z,98022.17
2018-09-18T20:51:09.920Z,98020.69
2018-09-18T20:53:38.844Z,98026.71
2018-09-18T20:56:07.780Z,98030.64
2018-09-18T20:58:36.887Z,98026.03
2018-09-18T21:01:06.006Z,98030.89
2018-09-18T21:03:34.973Z,98033.63
2018-09-18T21:06:03.906Z,98037.33
2018-09-18T21:08:33.041Z,98038.91
2018-09-18T21:11:01.858Z,98039.17
2018-09-18T21:13:30.865Z,98036.66
2018-09-18T21:15:59.683Z,98037.00
2018-09-18T21:18:28.580Z,98030.94
2018-09-18T21:20:57.559Z,98035.37
2018-09-18T21:23:26.353Z,98033.72
2018-09-18T21:26:03.825Z,98037.92
2018-09-18T21:28:33.098Z,98040.53
2018-09-18T21:31:02.329Z,98039.27
2018-09-18T21:33:31.515Z,98044.30
2018-09-18T21:36:00.708Z,98045.00
2018-09-18T21:38:30.118Z,98047.66
2018-09-18T21:40:58.986Z,98055.01
2018-09-18T21:43:28.658Z,98051.02
2018-09-18T21:45:57.624Z,98047.28
2018-09-18T21:48:26.901Z,98047.70
2018-09-18T21:50:55.815Z,98055.50
2018-09-18T21:53:24.743Z,98061.73
2018-09-18T21:55:54.000Z,98069.36
2018-09-18T21:58:23.072Z,98075.73
2018-09-18T22:00:52.073Z,98078.59
2018-09-18T22:03:21.146Z,98077.37
2018-09-18T22:05:50.114Z,98083.59
2018-09-18T22:08:19.024Z,98085.23
2018-09-18T22:10:47.974Z,98084.17
2018-09-18T22:13:16.893Z,98086.67
2018-09-18T22:15:46.090Z,98092.81
2018-09-18T22:18:14.878Z,98090.35
2018-09-18T22:20:44.317Z,98090.20
2018-09-18T22:23:13.535Z,98097.78
2018-09-18T22:25:42.477Z,98089.92
2018-09-18T22:28:11.470Z,98092.36
2018-09-18T22:30:40.366Z,98097.04
2018-09-18T22:33:09.206Z,98097.73
2018-09-18T22:35:38.172Z,98095.22
2018-09-18T22:38:07.604Z,98090.67
2018-09-18T22:40:36.717Z,98089.82
2018-09-18T22:43:05.748Z,98085.92
2018-09-18T22:45:34.679Z,98089.30
2018-09-18T22:48:03.620Z,98087.40
2018-09-18T22:50:32.669Z,98088.14
2018-09-18T22:53:01.676Z,98088.87
2018-09-18T22:55:30.506Z,98096.05
2018-09-18T22:57:59.404Z,98095.03
2018-09-18T23:00:28.454Z,98091.87
2018-09-18T23:02:57.482Z,98095.98
2018-09-18T23:05:26.459Z,98099.44
2018-09-18T23:07:55.314Z,98097.97
2018-09-18T23:10:24.131Z,98101.42
2018-09-18T23:12:53.027Z,98099.84
2018-09-18T23:15:21.843Z,98106.80
2018-09-18T23:17:50.919Z,98100.53
2018-09-18T23:20:19.697Z,98102.41
2018-09-18T23:22:48.613Z,98095.67
2018-09-18T23:25:17.688Z,98101.88
2018-09-18T23:27:46.486Z,98097.59
2018-09-18T23:30:15.810Z,98098.73
2018-09-18T23:32:45.010Z,98103.53
2018-09-18T23:35:13.793Z,98099.89
2018-09-18T23:37:42.619Z,98100.90
2018-09-18T23:40:11.588Z,98103.53
2018-09-18T23:42:41.184Z,98113.23
2018-09-18T23:45:10.153Z,98112.02
2018-09-18T23:47:39.025Z,98102.77
2018-09-18T23:50:07.887Z,98106.44
2018-09-18T23:52:36.655Z,98106.93
2018-09-18T23:55:05.624Z,98111.14
2018-09-18T23:57:34.654Z,98116.17
